This is the latest recevied weather packets stored in our database for station/object KI4LFI. If no packets are shown the sender has not sent any weather packets the latest 10 day(s).
| Time | Temp. | Humidity | Pressure | Rain* | Wind** | Luminosity | Snow |
|---|---|---|---|---|---|---|---|
| 1777629636 | 16.11° C | 98% | 1011.8 hPa | 0 mm | - | - | - |
| 1777626951 | 16.11° C | 98% | 1012.1 hPa | 0 mm | - | - | - |
| 1777626036 | 16.67° C | 97% | 1012.1 hPa | 0 mm | - | - | - |
| 1777623338 | 17.78° C | 96% | 1012.1 hPa | 0.25 mm | - | - | - |
| 1777620637 | 18.33° C | 95% | 1011.7 hPa | 0 mm | - | - | - |
| 1777618843 | 18.33° C | 95% | 1011.9 hPa | 0 mm | - | - | - |
| 1777617040 | 18.33° C | 96% | 1011.6 hPa | 0 mm | - | - | - |
| 1777615238 | 18.33° C | 98% | 1012 hPa | 0 mm | - | - | - |
| 1777613435 | 18.33° C | 98% | 1011.9 hPa | 0 mm | - | - | - |
| 1777610743 | 18.33° C | 98% | 1012.6 hPa | 0 mm | - | - | - |
| 1777607138 | 18.89° C | 96% | 1013.2 hPa | 0 mm | - | - | - |
| 1777600846 | 20° C | 92% | 1012.1 hPa | 0 mm | - | - | - |
| 1777599942 | 20° C | 92% | 1011.9 hPa | 0 mm | - | - | - |
| 1777594538 | 21.67° C | 88% | 1011 hPa | 0 mm | - | - | - |
| 1777590943 | 22.78° C | 84% | 1010.6 hPa | 0 mm | - | - | - |
| 1777590041 | 23.33° C | 83% | 1010.5 hPa | 0 mm | - | - | - |
| 1777588243 | 23.33° C | 81% | 1010.4 hPa | 0 mm | - | - | - |
| 1777587344 | 23.89° C | 80% | 1010.1 hPa | 0 mm | - | - | - |
| 1777584642 | 24.44° C | 77% | 1010.5 hPa | 0 mm | - | - | - |
| 1777583736 | 25.56° C | 78% | 1010.9 hPa | 0 mm | - | - | - |
| 1777582865 | 25° C | 75% | 1010.9 hPa | 0 mm | - | - | - |
| 1777580145 | 26.11° C | 78% | 1011.4 hPa | 0 mm | - | - | - |
| 1777578343 | 25° C | 78% | 1011.5 hPa | 0 mm | - | - | - |
| 1777576541 | 24.44° C | 78% | 1011.5 hPa | 0 mm | - | - | - |
| 1777573842 | 24.44° C | 78% | 1011.9 hPa | 0 mm | - | - | - |
* Rain latest hour (hover to see other rain measurements)
** Current wind speed in m/s (hover to see current wind gust speed)